sensor_id;sensor_type;location;lat;lon;timestamp;pressure;altitude;pressure_sealevel;temperature;humidity
51249;BME280;39642;47.556;18.728;2023-03-14T00:01:58;98739.62;;;21.23;30.35
51249;BME280;39642;47.556;18.728;2023-03-14T00:04:24;98741.44;;;21.23;30.47
51249;BME280;39642;47.556;18.728;2023-03-14T00:06:50;98744.09;;;21.23;30.25
51249;BME280;39642;47.556;18.728;2023-03-14T00:09:16;98728.22;;;21.23;30.34
51249;BME280;39642;47.556;18.728;2023-03-14T00:11:42;98729.91;;;21.24;30.36
51249;BME280;39642;47.556;18.728;2023-03-14T00:14:08;98722.91;;;21.23;30.11
51249;BME280;39642;47.556;18.728;2023-03-14T00:16:34;98728.22;;;21.23;30.24
51249;BME280;39642;47.556;18.728;2023-03-14T00:19:01;98718.44;;;21.23;29.92
51249;BME280;39642;47.556;18.728;2023-03-14T00:21:27;98719.44;;;21.22;30.17
51249;BME280;39642;47.556;18.728;2023-03-14T00:23:53;98714.13;;;21.22;30.02
51249;BME280;39642;47.556;18.728;2023-03-14T00:26:20;98713.28;;;21.21;29.68
51249;BME280;39642;47.556;18.728;2023-03-14T00:28:50;98704.53;;;21.21;29.98
51249;BME280;39642;47.556;18.728;2023-03-14T00:31:16;98697.41;;;21.21;29.80
51249;BME280;39642;47.556;18.728;2023-03-14T00:33:43;98698.37;;;21.20;29.87
51249;BME280;39642;47.556;18.728;2023-03-14T00:36:12;98693.06;;;21.20;29.76
51249;BME280;39642;47.556;18.728;2023-03-14T00:38:39;98685.13;;;21.20;29.72
51249;BME280;39642;47.556;18.728;2023-03-14T00:41:11;98689.59;;;21.20;29.67
51249;BME280;39642;47.556;18.728;2023-03-14T00:43:38;98683.44;;;21.19;29.82
51249;BME280;39642;47.556;18.728;2023-03-14T00:46:04;98679.00;;;21.20;29.96
51249;BME280;39642;47.556;18.728;2023-03-14T00:48:30;98675.50;;;21.19;29.67
51249;BME280;39642;47.556;18.728;2023-03-14T00:50:56;98670.31;;;21.18;29.76
51249;BME280;39642;47.556;18.728;2023-03-14T00:53:22;98669.50;;;21.17;29.77
51249;BME280;39642;47.556;18.728;2023-03-14T00:55:49;98666.84;;;21.17;30.03
51249;BME280;39642;47.556;18.728;2023-03-14T00:58:16;98663.38;;;21.17;29.78
51249;BME280;39642;47.556;18.728;2023-03-14T01:00:43;98665.03;;;21.18;29.88
51249;BME280;39642;47.556;18.728;2023-03-14T01:03:09;98663.38;;;21.17;29.95
51249;BME280;39642;47.556;18.728;2023-03-14T01:05:35;98655.44;;;21.17;30.06
51249;BME280;39642;47.556;18.728;2023-03-14T01:08:02;98650.97;;;21.17;30.27
51249;BME280;39642;47.556;18.728;2023-03-14T01:10:29;98640.38;;;21.17;30.05
51249;BME280;39642;47.556;18.728;2023-03-14T01:12:55;98635.09;;;21.17;30.10
51249;BME280;39642;47.556;18.728;2023-03-14T01:15:21;98635.91;;;21.18;29.90
51249;BME280;39642;47.556;18.728;2023-03-14T01:17:47;98623.50;;;21.18;30.16
51249;BME280;39642;47.556;18.728;2023-03-14T01:20:14;98616.44;;;21.19;30.42
51249;BME280;39642;47.556;18.728;2023-03-14T01:22:41;98607.63;;;21.18;30.05
51249;BME280;39642;47.556;18.728;2023-03-14T01:25:09;98598.03;;;21.17;30.18
51249;BME280;39642;47.556;18.728;2023-03-14T01:27:36;98598.84;;;21.18;30.35
51249;BME280;39642;47.556;18.728;2023-03-14T01:30:03;98599.56;;;21.20;30.32
51249;BME280;39642;47.556;18.728;2023-03-14T01:32:29;98593.44;;;21.19;30.19
51249;BME280;39642;47.556;18.728;2023-03-14T01:34:55;98596.09;;;21.19;30.16
51249;BME280;39642;47.556;18.728;2023-03-14T01:37:21;98599.56;;;21.20;30.08
51249;BME280;39642;47.556;18.728;2023-03-14T01:39:47;98589.09;;;21.18;30.08
51249;BME280;39642;47.556;18.728;2023-03-14T01:42:14;98591.63;;;21.20;30.23
51249;BME280;39642;47.556;18.728;2023-03-14T01:45:53;98585.50;;;21.19;29.81
51249;BME280;39642;47.556;18.728;2023-03-14T01:47:52;98588.25;;;21.18;30.04
51249;BME280;39642;47.556;18.728;2023-03-14T01:50:18;98586.44;;;21.18;29.80
51249;BME280;39642;47.556;18.728;2023-03-14T01:52:46;98585.63;;;21.18;29.89
51249;BME280;39642;47.556;18.728;2023-03-14T01:55:15;98575.03;;;21.18;29.82
51249;BME280;39642;47.556;18.728;2023-03-14T01:57:49;98568.91;;;21.17;29.55
51249;BME280;39642;47.556;18.728;2023-03-14T02:00:19;98553.97;;;21.16;29.68
51249;BME280;39642;47.556;18.728;2023-03-14T02:02:58;98553.97;;;21.16;29.68
51249;BME280;39642;47.556;18.728;2023-03-14T02:05:30;98548.69;;;21.16;29.64
51249;BME280;39642;47.556;18.728;2023-03-14T02:07:59;98535.44;;;21.16;29.55
51249;BME280;39642;47.556;18.728;2023-03-14T02:10:29;98528.47;;;21.15;29.56
51249;BME280;39642;47.556;18.728;2023-03-14T02:12:56;98527.66;;;21.15;29.46
51249;BME280;39642;47.556;18.728;2023-03-14T02:15:25;98523.19;;;21.15;29.70
51249;BME280;39642;47.556;18.728;2023-03-14T02:17:51;98527.66;;;21.15;29.57
51249;BME280;39642;47.556;18.728;2023-03-14T02:22:45;98525.00;;;21.15;29.69
51249;BME280;39642;47.556;18.728;2023-03-14T02:27:56;98511.88;;;21.13;30.07
51249;BME280;39642;47.556;18.728;2023-03-14T02:30:24;98512.72;;;21.14;30.21
51249;BME280;39642;47.556;18.728;2023-03-14T02:32:58;98513.56;;;21.14;30.43
51249;BME280;39642;47.556;18.728;2023-03-14T02:35:27;98503.00;;;21.14;29.84
51249;BME280;39642;47.556;18.728;2023-03-14T02:38:06;98506.31;;;21.16;29.76
51249;BME280;39642;47.556;18.728;2023-03-14T02:40:35;98494.06;;;21.15;29.99
51249;BME280;39642;47.556;18.728;2023-03-14T02:43:00;98494.91;;;21.16;29.71
51249;BME280;39642;47.556;18.728;2023-03-14T02:45:38;98482.50;;;21.16;30.22
51249;BME280;39642;47.556;18.728;2023-03-14T02:48:09;98471.06;;;21.16;29.67
51249;BME280;39642;47.556;18.728;2023-03-14T02:50:37;98477.19;;;21.16;30.19
51249;BME280;39642;47.556;18.728;2023-03-14T02:53:03;98474.56;;;21.16;29.93
51249;BME280;39642;47.556;18.728;2023-03-14T02:55:29;98465.66;;;21.17;29.94
51249;BME280;39642;47.556;18.728;2023-03-14T02:57:55;98456.91;;;21.17;30.20
51249;BME280;39642;47.556;18.728;2023-03-14T03:00:21;98468.31;;;21.17;29.99
51249;BME280;39642;47.556;18.728;2023-03-14T03:02:47;98466.50;;;21.18;30.16
51249;BME280;39642;47.556;18.728;2023-03-14T03:05:13;98461.22;;;21.18;30.19
51249;BME280;39642;47.556;18.728;2023-03-14T03:07:39;98455.06;;;21.17;30.20
51249;BME280;39642;47.556;18.728;2023-03-14T03:10:05;98446.31;;;21.17;30.02
51249;BME280;39642;47.556;18.728;2023-03-14T03:12:31;98446.31;;;21.17;30.05
51249;BME280;39642;47.556;18.728;2023-03-14T03:14:57;98440.16;;;21.16;29.77
51249;BME280;39642;47.556;18.728;2023-03-14T03:17:23;98441.97;;;21.16;29.95
51249;BME280;39642;47.556;18.728;2023-03-14T03:19:49;98434.03;;;21.16;29.77
51249;BME280;39642;47.556;18.728;2023-03-14T03:22:15;98436.66;;;21.16;29.83
51249;BME280;39642;47.556;18.728;2023-03-14T03:24:41;98422.59;;;21.15;29.79
51249;BME280;39642;47.556;18.728;2023-03-14T03:27:06;98427.06;;;21.15;29.69
51249;BME280;39642;47.556;18.728;2023-03-14T03:29:32;98425.38;;;21.14;29.76
51249;BME280;39642;47.556;18.728;2023-03-14T03:31:58;98423.59;;;21.14;29.68
51249;BME280;39642;47.556;18.728;2023-03-14T03:34:24;98419.25;;;21.13;29.86
51249;BME280;39642;47.556;18.728;2023-03-14T03:36:50;98425.38;;;21.14;29.39
51249;BME280;39642;47.556;18.728;2023-03-14T03:39:16;98421.88;;;21.13;29.75
51249;BME280;39642;47.556;18.728;2023-03-14T03:41:41;98424.53;;;21.13;29.68
51249;BME280;39642;47.556;18.728;2023-03-14T03:44:07;98413.09;;;21.13;29.84
51249;BME280;39642;47.556;18.728;2023-03-14T03:46:33;98415.75;;;21.13;29.92
51249;BME280;39642;47.556;18.728;2023-03-14T03:48:59;98428.16;;;21.12;29.94
51249;BME280;39642;47.556;18.728;2023-03-14T03:51:26;98430.66;;;21.14;29.78
51249;BME280;39642;47.556;18.728;2023-03-14T03:53:52;98428.88;;;21.14;29.50
51249;BME280;39642;47.556;18.728;2023-03-14T03:56:18;98413.81;;;21.15;29.77
51249;BME280;39642;47.556;18.728;2023-03-14T03:58:44;98420.94;;;21.14;29.82
51249;BME280;39642;47.556;18.728;2023-03-14T04:01:10;98422.72;;;21.14;29.76
51249;BME280;39642;47.556;18.728;2023-03-14T04:03:36;98414.66;;;21.15;29.86
51249;BME280;39642;47.556;18.728;2023-03-14T04:06:08;98417.31;;;21.15;30.04
51249;BME280;39642;47.556;18.728;2023-03-14T04:08:34;98423.44;;;21.16;30.04
51249;BME280;39642;47.556;18.728;2023-03-14T04:11:01;98421.63;;;21.16;29.73
51249;BME280;39642;47.556;18.728;2023-03-14T04:13:27;98418.97;;;21.16;30.18
51249;BME280;39642;47.556;18.728;2023-03-14T04:15:54;98419.84;;;21.17;30.09
51249;BME280;39642;47.556;18.728;2023-03-14T04:18:21;98425.13;;;21.17;30.14
51249;BME280;39642;47.556;18.728;2023-03-14T04:20:55;98438.37;;;21.17;29.99
51249;BME280;39642;47.556;18.728;2023-03-14T04:23:22;98430.44;;;21.17;29.97
51249;BME280;39642;47.556;18.728;2023-03-14T04:25:52;98433.06;;;21.17;29.82
51249;BME280;39642;47.556;18.728;2023-03-14T04:28:18;98437.50;;;21.16;30.12
51249;BME280;39642;47.556;18.728;2023-03-14T04:30:44;98426.06;;;21.16;29.91
51249;BME280;39642;47.556;18.728;2023-03-14T04:33:10;98426.91;;;21.16;29.87
51249;BME280;39642;47.556;18.728;2023-03-14T04:35:38;98424.25;;;21.16;29.89
51249;BME280;39642;47.556;18.728;2023-03-14T04:38:04;98427.91;;;21.15;29.76
51249;BME280;39642;47.556;18.728;2023-03-14T04:40:30;98425.25;;;21.15;29.91
51249;BME280;39642;47.556;18.728;2023-03-14T04:42:55;98429.72;;;21.15;29.73
51249;BME280;39642;47.556;18.728;2023-03-14T04:45:21;98435.00;;;21.15;29.54
51249;BME280;39642;47.556;18.728;2023-03-14T04:47:47;98422.72;;;21.14;29.86
51249;BME280;39642;47.556;18.728;2023-03-14T04:50:13;98429.81;;;21.13;29.50
51249;BME280;39642;47.556;18.728;2023-03-14T04:52:39;98426.34;;;21.13;29.62
51249;BME280;39642;47.556;18.728;2023-03-14T04:55:05;98428.16;;;21.12;29.56
51249;BME280;39642;47.556;18.728;2023-03-14T04:57:31;98426.34;;;21.13;29.62
51249;BME280;39642;47.556;18.728;2023-03-14T04:59:56;98425.50;;;21.12;29.39
51249;BME280;39642;47.556;18.728;2023-03-14T05:02:22;98422.00;;;21.12;29.64
51249;BME280;39642;47.556;18.728;2023-03-14T05:04:48;98429.09;;;21.11;29.46
51249;BME280;39642;47.556;18.728;2023-03-14T05:07:14;98421.16;;;21.11;29.49
51249;BME280;39642;47.556;18.728;2023-03-14T05:09:40;98429.09;;;21.11;29.53
51249;BME280;39642;47.556;18.728;2023-03-14T05:12:06;98421.16;;;21.11;29.77
51249;BME280;39642;47.556;18.728;2023-03-14T05:14:32;98419.50;;;21.10;29.41
51249;BME280;39642;47.556;18.728;2023-03-14T05:16:57;98421.16;;;21.11;29.50
51249;BME280;39642;47.556;18.728;2023-03-14T05:19:23;98424.78;;;21.10;29.58
51249;BME280;39642;47.556;18.728;2023-03-14T05:21:49;98426.47;;;21.11;29.65
51249;BME280;39642;47.556;18.728;2023-03-14T05:24:15;98417.69;;;21.11;29.83
51249;BME280;39642;47.556;18.728;2023-03-14T05:26:41;98422.16;;;21.10;29.82
51249;BME280;39642;47.556;18.728;2023-03-14T05:29:07;98406.28;;;21.10;29.75
51249;BME280;39642;47.556;18.728;2023-03-14T05:31:33;98406.13;;;21.12;29.90
51249;BME280;39642;47.556;18.728;2023-03-14T05:33:58;98413.22;;;21.11;29.87
51249;BME280;39642;47.556;18.728;2023-03-14T05:36:24;98412.28;;;21.12;29.63
51249;BME280;39642;47.556;18.728;2023-03-14T05:38:50;98414.94;;;21.12;29.36
51249;BME280;39642;47.556;18.728;2023-03-14T05:41:16;98413.09;;;21.13;29.50
51249;BME280;39642;47.556;18.728;2023-03-14T05:43:42;98406.00;;;21.13;29.35
51249;BME280;39642;47.556;18.728;2023-03-14T05:46:08;98423.59;;;21.14;29.24
51249;BME280;39642;47.556;18.728;2023-03-14T05:48:34;98424.41;;;21.15;29.06
51249;BME280;39642;47.556;18.728;2023-03-14T05:51:00;98424.25;;;21.16;30.80
51249;BME280;39642;47.556;18.728;2023-03-14T05:53:26;98424.03;;;21.19;31.40
51249;BME280;39642;47.556;18.728;2023-03-14T05:55:53;98426.56;;;21.21;31.32
51249;BME280;39642;47.556;18.728;2023-03-14T05:58:19;98430.87;;;21.22;31.21
51249;BME280;39642;47.556;18.728;2023-03-14T06:00:45;98430.87;;;21.22;30.16
51249;BME280;39642;47.556;18.728;2023-03-14T06:03:11;98427.25;;;21.23;30.96
51249;BME280;39642;47.556;18.728;2023-03-14T06:05:37;98434.34;;;21.23;30.05
51249;BME280;39642;47.556;18.728;2023-03-14T06:08:03;98428.12;;;21.24;29.78
51249;BME280;39642;47.556;18.728;2023-03-14T06:10:29;98428.81;;;21.26;29.63
51249;BME280;39642;47.556;18.728;2023-03-14T06:12:54;98423.37;;;21.27;29.70
51249;BME280;39642;47.556;18.728;2023-03-14T06:15:20;98424.22;;;21.28;30.60
51249;BME280;39642;47.556;18.728;2023-03-14T06:17:46;98422.53;;;21.27;31.33
51249;BME280;39642;47.556;18.728;2023-03-14T06:20:12;98427.84;;;21.27;31.04
51249;BME280;39642;47.556;18.728;2023-03-14T06:22:39;98425.31;;;21.25;31.73
51249;BME280;39642;47.556;18.728;2023-03-14T06:25:06;98424.47;;;21.25;32.51
51249;BME280;39642;47.556;18.728;2023-03-14T06:27:33;98429.78;;;21.25;32.82
51249;BME280;39642;47.556;18.728;2023-03-14T06:29:58;98429.50;;;21.28;33.41
51249;BME280;39642;47.556;18.728;2023-03-14T06:32:24;98441.78;;;21.29;32.31
51249;BME280;39642;47.556;18.728;2023-03-14T06:34:50;98446.81;;;21.32;31.91
51249;BME280;39642;47.556;18.728;2023-03-14T06:37:16;98443.94;;;21.35;31.19
51249;BME280;39642;47.556;18.728;2023-03-14T06:39:42;98442.84;;;21.37;30.73
51249;BME280;39642;47.556;18.728;2023-03-14T06:42:10;98443.56;;;21.39;31.00
51249;BME280;39642;47.556;18.728;2023-03-14T06:44:36;98448.00;;;21.39;30.99
51249;BME280;39642;47.556;18.728;2023-03-14T06:47:02;98442.59;;;21.40;31.18
51249;BME280;39642;47.556;18.728;2023-03-14T06:49:28;98444.31;;;21.41;30.74
51249;BME280;39642;47.556;18.728;2023-03-14T06:51:54;98450.44;;;21.42;30.65
51249;BME280;39642;47.556;18.728;2023-03-14T06:54:20;98449.31;;;21.45;30.80
51249;BME280;39642;47.556;18.728;2023-03-14T06:56:46;98445.00;;;21.44;31.16
51249;BME280;39642;47.556;18.728;2023-03-14T06:59:12;98443.44;;;21.41;31.40
51249;BME280;39642;47.556;18.728;2023-03-14T07:01:37;98440.03;;;21.39;32.12
51249;BME280;39642;47.556;18.728;2023-03-14T07:04:03;98434.31;;;21.34;31.71
51249;BME280;39642;47.556;18.728;2023-03-14T07:06:29;98432.63;;;21.33;31.76
51249;BME280;39642;47.556;18.728;2023-03-14T07:08:56;98436.13;;;21.33;31.56
51249;BME280;39642;47.556;18.728;2023-03-14T07:11:22;98444.06;;;21.33;31.44
51249;BME280;39642;47.556;18.728;2023-03-14T07:13:48;98444.19;;;21.32;31.37
51249;BME280;39642;47.556;18.728;2023-03-14T07:16:14;98439.75;;;21.32;31.52
51249;BME280;39642;47.556;18.728;2023-03-14T07:18:40;98445.03;;;21.32;31.51
51249;BME280;39642;47.556;18.728;2023-03-14T07:21:07;98441.41;;;21.33;31.59
51249;BME280;39642;47.556;18.728;2023-03-14T07:23:34;98440.44;;;21.34;31.65
51249;BME280;39642;47.556;18.728;2023-03-14T07:26:01;98438.50;;;21.36;31.73
51249;BME280;39642;47.556;18.728;2023-03-14T07:28:27;98430.56;;;21.36;31.72
51249;BME280;39642;47.556;18.728;2023-03-14T07:30:53;98434.91;;;21.37;31.46
51249;BME280;39642;47.556;18.728;2023-03-14T07:33:20;98423.47;;;21.37;31.49
51249;BME280;39642;47.556;18.728;2023-03-14T07:35:47;98423.47;;;21.37;32.08
51249;BME280;39642;47.556;18.728;2023-03-14T07:38:14;98416.37;;;21.37;31.70
51249;BME280;39642;47.556;18.728;2023-03-14T07:40:40;98421.66;;;21.37;33.24
51249;BME280;39642;47.556;18.728;2023-03-14T07:43:06;98419.84;;;21.38;33.01
51249;BME280;39642;47.556;18.728;2023-03-14T07:45:32;98410.09;;;21.38;32.08
51249;BME280;39642;47.556;18.728;2023-03-14T07:47:58;98408.28;;;21.39;31.84
51249;BME280;39642;47.556;18.728;2023-03-14T07:50:25;98415.19;;;21.41;31.77
51249;BME280;39642;47.556;18.728;2023-03-14T07:52:51;98409.72;;;21.43;31.74
51249;BME280;39642;47.556;18.728;2023-03-14T07:55:17;98409.34;;;21.48;32.32
51249;BME280;39642;47.556;18.728;2023-03-14T07:57:43;98414.50;;;21.49;32.73
51249;BME280;39642;47.556;18.728;2023-03-14T08:00:09;98408.81;;;21.54;32.77
51249;BME280;39642;47.556;18.728;2023-03-14T08:02:36;98393.78;;;21.54;32.95
51249;BME280;39642;47.556;18.728;2023-03-14T08:05:03;98385.69;;;21.56;33.51
51249;BME280;39642;47.556;18.728;2023-03-14T08:07:29;98388.94;;;21.59;36.02
51249;BME280;39642;47.556;18.728;2023-03-14T08:09:55;98381.00;;;21.59;38.00
51249;BME280;39642;47.556;18.728;2023-03-14T08:12:21;98387.13;;;21.60;38.14
51249;BME280;39642;47.556;18.728;2023-03-14T08:14:46;98385.44;;;21.59;35.97
51249;BME280;39642;47.556;18.728;2023-03-14T08:17:12;98379.31;;;21.58;37.40
51249;BME280;39642;47.556;18.728;2023-03-14T08:19:38;98381.94;;;21.58;35.86
51249;BME280;39642;47.556;18.728;2023-03-14T08:22:06;98377.37;;;21.60;36.08
51249;BME280;39642;47.556;18.728;2023-03-14T08:24:32;98380.84;;;21.61;36.59
51249;BME280;39642;47.556;18.728;2023-03-14T08:26:58;98364.84;;;21.62;34.86
51249;BME280;39642;47.556;18.728;2023-03-14T08:29:24;98355.06;;;21.63;34.67
51249;BME280;39642;47.556;18.728;2023-03-14T08:31:50;98357.72;;;21.63;35.04
51249;BME280;39642;47.556;18.728;2023-03-14T08:34:16;98351.59;;;21.62;34.94
51249;BME280;39642;47.556;18.728;2023-03-14T08:36:42;98356.75;;;21.64;35.09
51249;BME280;39642;47.556;18.728;2023-03-14T08:39:08;98354.81;;;21.66;35.14
51249;BME280;39642;47.556;18.728;2023-03-14T08:41:35;98351.06;;;21.69;35.09
51249;BME280;39642;47.556;18.728;2023-03-14T08:44:09;98348.13;;;21.72;35.01
51249;BME280;39642;47.556;18.728;2023-03-14T08:46:36;98340.06;;;21.73;34.77
51249;BME280;39642;47.556;18.728;2023-03-14T08:49:03;98345.09;;;21.76;34.76
51249;BME280;39642;47.556;18.728;2023-03-14T08:51:29;98323.78;;;21.78;34.86
51249;BME280;39642;47.556;18.728;2023-03-14T08:53:55;98318.19;;;21.81;35.03
51249;BME280;39642;47.556;18.728;2023-03-14T08:56:21;98325.75;;;21.86;34.97
51249;BME280;39642;47.556;18.728;2023-03-14T08:58:46;98326.56;;;21.86;35.39
51249;BME280;39642;47.556;18.728;2023-03-14T09:01:12;98313.31;;;21.86;34.73
51249;BME280;39642;47.556;18.728;2023-03-14T09:03:38;98307.91;;;21.88;34.75
51249;BME280;39642;47.556;18.728;2023-03-14T09:06:06;98292.00;;;21.88;34.27
51249;BME280;39642;47.556;18.728;2023-03-14T09:08:32;98290.88;;;21.90;34.00
51249;BME280;39642;47.556;18.728;2023-03-14T09:11:00;98282.94;;;21.90;34.04
51249;BME280;39642;47.556;18.728;2023-03-14T09:13:26;98270.69;;;21.89;33.87
51249;BME280;39642;47.556;18.728;2023-03-14T09:15:53;98265.38;;;21.89;34.56
51249;BME280;39642;47.556;18.728;2023-03-14T09:18:19;98262.97;;;21.86;34.60
51249;BME280;39642;47.556;18.728;2023-03-14T09:20:45;98264.94;;;21.84;34.54
51249;BME280;39642;47.556;18.728;2023-03-14T09:23:11;98265.91;;;21.83;35.64
51249;BME280;39642;47.556;18.728;2023-03-14T09:25:37;98253.78;;;21.80;35.81
51249;BME280;39642;47.556;18.728;2023-03-14T09:28:05;98267.16;;;21.79;35.95
51249;BME280;39642;47.556;18.728;2023-03-14T09:30:31;98267.31;;;21.77;35.29
51249;BME280;39642;47.556;18.728;2023-03-14T09:32:57;98272.72;;;21.76;35.29
51249;BME280;39642;47.556;18.728;2023-03-14T09:35:23;98266.59;;;21.75;34.85
51249;BME280;39642;47.556;18.728;2023-03-14T09:37:49;98235.63;;;21.76;34.36
51249;BME280;39642;47.556;18.728;2023-03-14T09:40:16;98230.22;;;21.77;34.84
51249;BME280;39642;47.556;18.728;2023-03-14T09:42:44;98234.94;;;21.74;34.86
51249;BME280;39642;47.556;18.728;2023-03-14T09:45:19;98231.69;;;21.70;34.59
51249;BME280;39642;47.556;18.728;2023-03-14T09:47:49;98226.28;;;21.72;33.88
51249;BME280;39642;47.556;18.728;2023-03-14T09:50:15;98223.22;;;21.76;32.88
51249;BME280;39642;47.556;18.728;2023-03-14T09:53:12;98227.00;;;21.83;33.25
51249;BME280;39642;47.556;18.728;2023-03-14T09:55:41;98219.34;;;21.90;33.39
51249;BME280;39642;47.556;18.728;2023-03-14T09:58:17;98220.47;;;21.88;33.14
51249;BME280;39642;47.556;18.728;2023-03-14T10:00:44;98209.16;;;21.86;33.46
51249;BME280;39642;47.556;18.728;2023-03-14T10:05:40;98214.44;;;21.76;33.82
51249;BME280;39642;47.556;18.728;2023-03-14T10:08:10;98209.69;;;21.70;34.08
51249;BME280;39642;47.556;18.728;2023-03-14T10:10:36;98216.22;;;21.66;34.44
51249;BME280;39642;47.556;18.728;2023-03-14T10:13:22;98215.78;;;21.60;34.56
51249;BME280;39642;47.556;18.728;2023-03-14T10:15:55;98215.38;;;21.55;35.31
51249;BME280;39642;47.556;18.728;2023-03-14T10:18:23;98208.94;;;21.48;36.53
51249;BME280;39642;47.556;18.728;2023-03-14T10:21:02;98210.87;;;21.46;37.20
51249;BME280;39642;47.556;18.728;2023-03-14T10:23:30;98212.81;;;21.44;38.33
51249;BME280;39642;47.556;18.728;2023-03-14T10:26:19;98192.84;;;21.40;38.49
51249;BME280;39642;47.556;18.728;2023-03-14T10:28:53;98199.09;;;21.39;39.16
51249;BME280;39642;47.556;18.728;2023-03-14T10:31:25;98196.44;;;21.39;39.23
51249;BME280;39642;47.556;18.728;2023-03-14T10:34:03;98188.50;;;21.39;39.61
51249;BME280;39642;47.556;18.728;2023-03-14T10:36:32;98172.91;;;21.36;39.16
51249;BME280;39642;47.556;18.728;2023-03-14T10:41:48;98172.06;;;21.35;39.98
51249;BME280;39642;47.556;18.728;2023-03-14T10:44:15;98158.00;;;21.35;39.44
51249;BME280;39642;47.556;18.728;2023-03-14T10:46:44;98162.03;;;21.39;38.77
51249;BME280;39642;47.556;18.728;2023-03-14T10:49:25;98157.59;;;21.39;38.51
51249;BME280;39642;47.556;18.728;2023-03-14T10:51:52;98156.63;;;21.40;38.54
51249;BME280;39642;47.556;18.728;2023-03-14T10:54:22;98152.34;;;21.49;38.02
51249;BME280;39642;47.556;18.728;2023-03-14T10:56:59;98162.94;;;21.49;37.83
51249;BME280;39642;47.556;18.728;2023-03-14T10:59:29;98157.09;;;21.55;38.96
51249;BME280;39642;47.556;18.728;2023-03-14T11:02:00;98144.41;;;21.59;40.17
51249;BME280;39642;47.556;18.728;2023-03-14T11:04:57;98133.16;;;21.67;41.75
51249;BME280;39642;47.556;18.728;2023-03-14T11:07:36;98139.28;;;21.77;42.47
51249;BME280;39642;47.556;18.728;2023-03-14T11:10:28;98129.66;;;21.86;43.01
51249;BME280;39642;47.556;18.728;2023-03-14T11:15:40;98127.28;;;22.02;43.69
51249;BME280;39642;47.556;18.728;2023-03-14T11:26:39;98108.34;;;22.26;45.37
51249;BME280;39642;47.556;18.728;2023-03-14T11:31:46;98106.50;;;22.36;45.26
51249;BME280;39642;47.556;18.728;2023-03-14T11:37:43;98111.37;;;22.41;45.75
51249;BME280;39642;47.556;18.728;2023-03-14T11:39:59;98112.22;;;22.41;42.43
51249;BME280;39642;47.556;18.728;2023-03-14T11:42:26;98117.38;;;22.43;44.94
51249;BME280;39642;47.556;18.728;2023-03-14T11:44:55;98109.00;;;22.38;41.63
51249;BME280;39642;47.556;18.728;2023-03-14T11:50:05;98099.12;;;22.30;41.51
51249;BME280;39642;47.556;18.728;2023-03-14T11:52:46;98092.41;;;22.26;40.54
51249;BME280;39642;47.556;18.728;2023-03-14T11:57:53;98081.13;;;22.04;38.59
51249;BME280;39642;47.556;18.728;2023-03-14T12:00:24;98073.34;;;21.93;39.04
51249;BME280;39642;47.556;18.728;2023-03-14T12:10:55;98069.69;;;21.75;38.53
51249;BME280;39642;47.556;18.728;2023-03-14T12:13:28;98063.84;;;21.71;38.40
51249;BME280;39642;47.556;18.728;2023-03-14T12:15:57;98055.34;;;21.68;37.91
51249;BME280;39642;47.556;18.728;2023-03-14T12:18:32;98054.62;;;21.66;37.79
51249;BME280;39642;47.556;18.728;2023-03-14T12:21:03;98045.03;;;21.65;37.73
51249;BME280;39642;47.556;18.728;2023-03-14T12:28:37;98033.47;;;21.56;37.23
51249;BME280;39642;47.556;18.728;2023-03-14T12:45:33;98017.84;;;21.43;36.91
51249;BME280;39642;47.556;18.728;2023-03-14T12:48:16;98014.34;;;21.42;37.07
51249;BME280;39642;47.556;18.728;2023-03-14T12:50:53;98005.59;;;21.42;36.71
51249;BME280;39642;47.556;18.728;2023-03-14T12:59:05;98005.81;;;21.39;36.48
51249;BME280;39642;47.556;18.728;2023-03-14T13:01:36;98001.12;;;21.42;37.65
51249;BME280;39642;47.556;18.728;2023-03-14T13:04:09;98003.16;;;21.39;37.03
51249;BME280;39642;47.556;18.728;2023-03-14T13:12:17;98005.13;;;21.37;37.58
51249;BME280;39642;47.556;18.728;2023-03-14T13:14:48;98005.13;;;21.37;36.82
51249;BME280;39642;47.556;18.728;2023-03-14T13:17:24;98012.09;;;21.38;37.21
51249;BME280;39642;47.556;18.728;2023-03-14T13:19:54;98021.03;;;21.37;37.07
51249;BME280;39642;47.556;18.728;2023-03-14T13:22:27;98016.56;;;21.37;37.36
51249;BME280;39642;47.556;18.728;2023-03-14T13:25:09;98019.22;;;21.37;38.04
51249;BME280;39642;47.556;18.728;2023-03-14T13:27:36;98024.34;;;21.39;38.46
51249;BME280;39642;47.556;18.728;2023-03-14T13:30:24;98026.91;;;21.40;38.86
51249;BME280;39642;47.556;18.728;2023-03-14T13:32:51;98014.34;;;21.42;39.40
51249;BME280;39642;47.556;18.728;2023-03-14T13:35:27;98020.47;;;21.43;40.47
51249;BME280;39642;47.556;18.728;2023-03-14T13:37:59;98020.34;;;21.45;41.05
51249;BME280;39642;47.556;18.728;2023-03-14T13:40:29;98028.28;;;21.45;40.97
51249;BME280;39642;47.556;18.728;2023-03-14T13:43:01;98034.41;;;21.45;41.32
51249;BME280;39642;47.556;18.728;2023-03-14T13:45:28;98036.13;;;21.46;41.33
51249;BME280;39642;47.556;18.728;2023-03-14T13:47:54;98041.41;;;21.46;41.79
51249;BME280;39642;47.556;18.728;2023-03-14T13:50:20;98035.25;;;21.46;41.73
51249;BME280;39642;47.556;18.728;2023-03-14T13:52:45;98048.66;;;21.44;41.91
51249;BME280;39642;47.556;18.728;2023-03-14T13:55:17;98041.66;;;21.43;42.14
51249;BME280;39642;47.556;18.728;2023-03-14T13:57:48;98041.66;;;21.43;42.02
51249;BME280;39642;47.556;18.728;2023-03-14T14:00:19;98026.63;;;21.44;41.72
51249;BME280;39642;47.556;18.728;2023-03-14T14:02:46;98034.72;;;21.42;41.89
51249;BME280;39642;47.556;18.728;2023-03-14T14:05:13;98033.03;;;21.41;41.86
51249;BME280;39642;47.556;18.728;2023-03-14T14:07:40;98018.81;;;21.42;41.91